KWDG/WDG METAR and TAF weather

Enter ICAO airport designator
Station Type Date Time Source
KWDG METAR 2022/06/30 13:50 UTC NOAA

KWDG 301350Z 18010KT 10SM FEW200 26/12 A3006


Station Type Date Time Source
KWDG Decoded METAR 2022/06/30 13:50 UTC NOAA

Enid, Enid Woodring Regional Airport, OK, United States (KWDG) 36-22-45N 097-47-28W
Jun 30, 2022 - 09:50 AM EDT / 2022.06.30 1350 UTC
Wind: from the S (180 degrees) at 12 MPH (10 KT):0
Visibility: 10 mile(s):0
Sky conditions: mostly clear
Temperature: 78 F (26 C)
Dew Point: 53 F (12 C)
Relative Humidity: 41%
Pressure (altimeter): 30.06 in. Hg (1017 hPa)
ob: KWDG 301350Z 18010KT 10SM FEW200 26/12 A3006
cycle: 14

Station Type Date Time Source
KWDG TAF UTC NOAA

Error!

Example: see airport list